createdAt,value
2023-05-13T00:00:59.611Z,0.00
2023-05-13T00:01:59.597Z,0.00
2023-05-13T00:02:59.710Z,0.00
2023-05-13T00:03:59.565Z,0.00
2023-05-13T00:04:59.571Z,0.00
2023-05-13T00:05:59.574Z,0.00
2023-05-13T00:06:59.536Z,0.00
2023-05-13T00:07:59.523Z,0.00
2023-05-13T00:08:59.544Z,0.00
2023-05-13T00:09:59.501Z,0.00
2023-05-13T00:10:59.502Z,0.00
2023-05-13T00:11:59.482Z,0.00
2023-05-13T00:12:59.471Z,0.00
2023-05-13T00:13:59.457Z,0.00
2023-05-13T00:14:59.475Z,0.00
2023-05-13T00:15:59.481Z,0.00
2023-05-13T00:16:59.444Z,0.00
2023-05-13T00:17:59.452Z,0.00
2023-05-13T00:18:59.449Z,0.00
2023-05-13T00:19:59.394Z,0.00
2023-05-13T00:20:59.411Z,0.00
2023-05-13T00:21:59.385Z,0.00
2023-05-13T00:22:59.381Z,0.00
2023-05-13T00:23:59.364Z,0.00
2023-05-13T00:24:59.342Z,0.00
2023-05-13T00:25:59.333Z,0.00
2023-05-13T00:26:59.385Z,0.00
2023-05-13T00:27:59.307Z,0.00
2023-05-13T00:28:59.314Z,0.00
2023-05-13T00:29:59.288Z,0.00
2023-05-13T00:30:59.273Z,0.00
2023-05-13T00:31:59.459Z,0.00
2023-05-13T00:32:59.338Z,0.00
2023-05-13T00:33:59.241Z,0.00
2023-05-13T00:34:59.267Z,0.00
2023-05-13T00:35:59.240Z,0.00
2023-05-13T00:36:59.219Z,0.00
2023-05-13T00:37:59.198Z,0.00
2023-05-13T00:38:59.208Z,0.00
2023-05-13T00:39:59.179Z,0.00
2023-05-13T00:40:59.173Z,0.00
2023-05-13T00:41:59.173Z,0.00
2023-05-13T00:42:59.148Z,0.00
2023-05-13T00:43:59.130Z,0.00
2023-05-13T00:44:59.166Z,0.00
2023-05-13T00:45:59.155Z,0.00
2023-05-13T00:46:59.103Z,0.00
2023-05-13T00:47:59.125Z,0.00
2023-05-13T00:48:59.087Z,0.00
2023-05-13T00:49:59.081Z,0.00
2023-05-13T00:50:59.105Z,0.00
2023-05-13T00:51:59.050Z,0.00
2023-05-13T00:52:59.038Z,0.00
2023-05-13T00:53:59.028Z,0.00
2023-05-13T00:54:59.024Z,0.00
2023-05-13T00:55:59.009Z,0.00
2023-05-13T00:56:59.018Z,0.00
2023-05-13T00:57:58.990Z,0.00
2023-05-13T00:58:58.987Z,0.00
2023-05-13T00:59:58.974Z,0.00
2023-05-13T01:00:58.976Z,0.00
2023-05-13T01:01:58.959Z,0.00
2023-05-13T01:02:59.006Z,0.00
2023-05-13T01:03:58.918Z,0.00
2023-05-13T01:04:58.913Z,0.00
2023-05-13T01:05:58.912Z,0.00
2023-05-13T01:06:58.906Z,0.00
2023-05-13T01:07:58.881Z,0.00
2023-05-13T01:08:58.895Z,0.00
2023-05-13T01:09:58.853Z,0.00
2023-05-13T01:10:58.837Z,0.00
2023-05-13T01:11:58.854Z,0.00
2023-05-13T01:12:58.816Z,0.00
2023-05-13T01:13:58.811Z,0.00
2023-05-13T01:14:58.829Z,0.00
2023-05-13T01:15:58.787Z,0.00
2023-05-13T01:16:58.938Z,0.00
2023-05-13T01:17:58.810Z,0.00
2023-05-13T01:18:58.778Z,0.00
2023-05-13T01:19:58.750Z,0.00
2023-05-13T01:20:58.790Z,0.00
2023-05-13T01:21:58.720Z,0.00
2023-05-13T01:22:58.742Z,0.00
2023-05-13T01:23:58.722Z,0.00
2023-05-13T01:24:58.686Z,0.00
2023-05-13T01:25:58.686Z,0.00
2023-05-13T01:26:58.705Z,0.00
2023-05-13T01:27:58.679Z,0.00
2023-05-13T01:28:58.640Z,0.00
2023-05-13T01:29:58.636Z,0.00
2023-05-13T01:30:58.630Z,0.00
2023-05-13T01:31:58.620Z,0.00
2023-05-13T01:32:58.652Z,0.00
2023-05-13T01:33:58.609Z,0.00
2023-05-13T01:34:58.575Z,0.00
2023-05-13T01:35:58.568Z,0.00
2023-05-13T01:36:58.553Z,0.00
2023-05-13T01:37:58.549Z,0.00
2023-05-13T01:38:58.565Z,0.00
2023-05-13T01:39:58.554Z,0.00
2023-05-13T01:40:58.518Z,0.00
2023-05-13T01:41:58.524Z,0.00
2023-05-13T01:42:58.491Z,0.00
2023-05-13T01:43:58.492Z,0.00
2023-05-13T01:44:58.505Z,0.00
2023-05-13T01:45:58.495Z,0.00
2023-05-13T01:46:58.466Z,0.00
2023-05-13T01:47:58.520Z,0.00
2023-05-13T01:48:58.432Z,0.00
2023-05-13T01:49:58.415Z,0.00
2023-05-13T01:50:58.450Z,0.00
2023-05-13T01:51:58.393Z,0.00
2023-05-13T01:52:58.381Z,0.00
2023-05-13T01:53:58.372Z,0.00
2023-05-13T01:54:58.395Z,0.00
2023-05-13T01:55:58.349Z,0.00
2023-05-13T01:56:58.399Z,0.00
2023-05-13T01:57:58.327Z,0.00
2023-05-13T01:58:58.321Z,0.00
2023-05-13T01:59:58.328Z,0.00
2023-05-13T02:00:58.321Z,0.00
2023-05-13T02:01:58.314Z,0.00
2023-05-13T02:02:58.344Z,0.00
2023-05-13T02:03:58.402Z,0.00
2023-05-13T02:04:58.271Z,0.00
2023-05-13T02:05:58.253Z,0.00
2023-05-13T02:06:58.227Z,0.00
2023-05-13T02:07:58.218Z,0.00
2023-05-13T02:08:58.222Z,0.00
2023-05-13T02:09:58.210Z,0.00
2023-05-13T02:10:58.245Z,0.00
2023-05-13T02:11:58.182Z,0.00
2023-05-13T02:12:58.163Z,0.00
2023-05-13T02:13:58.154Z,0.00
2023-05-13T02:14:58.188Z,0.00
2023-05-13T02:15:58.209Z,0.00
2023-05-13T02:16:58.231Z,0.00
2023-05-13T02:17:58.153Z,0.00
2023-05-13T02:18:58.242Z,0.00
2023-05-13T02:19:58.088Z,0.00
2023-05-13T02:20:58.124Z,0.00
2023-05-13T02:21:58.075Z,0.00
2023-05-13T02:22:58.053Z,0.00
2023-05-13T02:23:58.064Z,0.00
2023-05-13T02:24:58.031Z,0.00
2023-05-13T02:25:58.038Z,0.00
2023-05-13T02:26:58.049Z,0.00
2023-05-13T02:27:58.011Z,0.00
2023-05-13T02:28:57.998Z,0.00
2023-05-13T02:29:57.986Z,0.00
2023-05-13T02:30:57.968Z,0.00
2023-05-13T02:31:57.967Z,0.00
2023-05-13T02:32:58.028Z,0.00
2023-05-13T02:33:57.973Z,0.00
2023-05-13T02:34:57.924Z,0.00
2023-05-13T02:35:57.934Z,0.00
2023-05-13T02:36:57.906Z,0.00
2023-05-13T02:37:57.900Z,0.00
2023-05-13T02:38:57.912Z,0.00
2023-05-13T02:39:57.874Z,0.00
2023-05-13T02:40:57.876Z,0.00
2023-05-13T02:41:57.874Z,0.00
2023-05-13T02:42:57.903Z,0.00
2023-05-13T02:43:57.830Z,0.00
2023-05-13T02:44:57.842Z,0.00
2023-05-13T02:45:57.858Z,0.00
2023-05-13T02:46:57.807Z,0.00
2023-05-13T02:47:57.834Z,0.00
2023-05-13T02:48:57.775Z,0.00
2023-05-13T02:49:57.767Z,0.00
2023-05-13T02:50:57.791Z,0.00
2023-05-13T02:51:57.767Z,0.00
2023-05-13T02:52:57.731Z,0.00
2023-05-13T02:53:57.724Z,0.00
2023-05-13T02:54:57.744Z,0.00
2023-05-13T02:55:57.708Z,0.00
2023-05-13T02:56:57.745Z,0.00
2023-05-13T02:57:57.719Z,0.00
2023-05-13T02:58:57.685Z,0.00
2023-05-13T02:59:57.660Z,0.00
2023-05-13T03:00:57.690Z,0.00
2023-05-13T03:01:57.641Z,0.00
2023-05-13T03:02:57.881Z,0.00
2023-05-13T03:03:57.616Z,0.00
2023-05-13T03:04:57.603Z,0.00
2023-05-13T03:05:57.592Z,0.00
2023-05-13T03:06:57.589Z,0.00
2023-05-13T03:07:57.587Z,0.00
2023-05-13T03:08:57.601Z,0.00
2023-05-13T03:09:57.552Z,0.00
2023-05-13T03:10:57.555Z,0.00
2023-05-13T03:11:57.531Z,0.00
2023-05-13T03:12:57.517Z,0.00
2023-05-13T03:13:57.510Z,0.00
2023-05-13T03:14:57.536Z,0.00
2023-05-13T03:15:57.522Z,0.00
2023-05-13T03:16:57.470Z,0.00
2023-05-13T03:17:57.535Z,0.00
2023-05-13T03:18:57.527Z,4.00
2023-05-13T03:19:57.442Z,4.00
2023-05-13T03:20:57.460Z,4.00
2023-05-13T03:21:57.424Z,4.00
2023-05-13T03:22:57.415Z,4.00
2023-05-13T03:23:57.399Z,4.00
2023-05-13T03:24:57.391Z,4.00
2023-05-13T03:25:57.378Z,8.00
2023-05-13T03:26:57.425Z,8.00
2023-05-13T03:27:57.355Z,8.00
2023-05-13T03:28:57.341Z,12.00
2023-05-13T03:29:57.336Z,16.00
2023-05-13T03:30:57.375Z,16.00
2023-05-13T03:31:57.308Z,24.00
2023-05-13T03:32:57.382Z,24.00
2023-05-13T03:33:57.292Z,28.00
2023-05-13T03:34:57.277Z,36.00
2023-05-13T03:35:57.270Z,40.00
2023-05-13T03:36:57.254Z,48.00
2023-05-13T03:37:57.264Z,56.00
2023-05-13T03:38:57.275Z,64.00
2023-05-13T03:39:57.222Z,72.00
2023-05-13T03:40:57.210Z,88.00
2023-05-13T03:41:57.202Z,96.00
2023-05-13T03:42:57.186Z,112.00
2023-05-13T03:43:57.190Z,120.00
2023-05-13T03:44:57.201Z,140.00
2023-05-13T03:45:57.171Z,156.00
2023-05-13T03:46:57.248Z,176.00
2023-05-13T03:47:57.160Z,196.00
2023-05-13T03:48:57.122Z,216.00
2023-05-13T03:49:57.135Z,240.00
2023-05-13T03:50:57.141Z,260.00
2023-05-13T03:51:57.094Z,288.00
2023-05-13T03:52:57.086Z,312.00
2023-05-13T03:53:57.082Z,344.00
2023-05-13T03:54:57.081Z,372.00
2023-05-13T03:55:57.051Z,400.00
2023-05-13T03:56:57.076Z,432.00
2023-05-13T03:57:57.029Z,468.00
2023-05-13T03:58:57.016Z,500.00
2023-05-13T03:59:57.019Z,536.00
2023-05-13T04:00:56.992Z,576.00
2023-05-13T04:01:56.998Z,616.00
2023-05-13T04:02:57.104Z,660.00
2023-05-13T04:03:56.965Z,704.00
2023-05-13T04:04:56.981Z,748.00
2023-05-13T04:05:56.953Z,796.00
2023-05-13T04:06:56.933Z,844.00
2023-05-13T04:07:56.922Z,896.00
2023-05-13T04:08:56.939Z,952.00
2023-05-13T04:09:56.903Z,1008.00
2023-05-13T04:10:56.901Z,1064.00
2023-05-13T04:11:56.899Z,1124.00
2023-05-13T04:12:56.868Z,1184.00
2023-05-13T04:13:56.861Z,1244.00
2023-05-13T04:14:56.872Z,1312.00
2023-05-13T04:15:56.841Z,1388.00
2023-05-13T04:16:56.847Z,1464.00
2023-05-13T04:17:56.848Z,1540.00
2023-05-13T04:18:56.910Z,1624.00
2023-05-13T04:19:56.797Z,1712.00
2023-05-13T04:20:56.808Z,1808.00
2023-05-13T04:21:56.783Z,1908.00
2023-05-13T04:22:56.772Z,2004.00
2023-05-13T04:23:56.752Z,2108.00
2023-05-13T04:24:56.865Z,2212.00
2023-05-13T04:25:56.734Z,2320.00
2023-05-13T04:26:57.179Z,2432.00
2023-05-13T04:27:56.716Z,2544.00
2023-05-13T04:28:56.694Z,2656.00
2023-05-13T04:29:56.683Z,2772.00
2023-05-13T04:30:56.669Z,2892.00
2023-05-13T04:31:56.714Z,3012.00
2023-05-13T04:32:56.778Z,3136.00
2023-05-13T04:33:56.656Z,3260.00
2023-05-13T04:34:56.647Z,3388.00
2023-05-13T04:35:56.624Z,3516.00
2023-05-13T04:36:56.601Z,3644.00
2023-05-13T04:37:56.607Z,3772.00
2023-05-13T04:38:56.633Z,3900.00
2023-05-13T04:39:56.602Z,4028.00
2023-05-13T04:40:56.559Z,4160.00
2023-05-13T04:41:56.552Z,4296.00
2023-05-13T04:42:56.540Z,4440.00
2023-05-13T04:43:56.535Z,4584.00
2023-05-13T04:44:56.571Z,4736.00
2023-05-13T04:45:56.548Z,4900.00
2023-05-13T04:46:56.494Z,5064.00
2023-05-13T04:47:58.440Z,5228.00
2023-05-13T04:48:56.484Z,5392.00
2023-05-13T04:49:56.463Z,5560.00
2023-05-13T04:50:56.477Z,5728.00
2023-05-13T04:51:56.444Z,5892.00
2023-05-13T04:52:56.520Z,6064.00
2023-05-13T04:53:56.436Z,6232.00
2023-05-13T04:54:56.408Z,6412.00
2023-05-13T04:55:56.401Z,6580.00
2023-05-13T04:56:56.424Z,6756.00
2023-05-13T04:57:56.404Z,6932.00
2023-05-13T04:58:56.379Z,7108.00
2023-05-13T04:59:56.357Z,7292.00
2023-05-13T05:00:56.342Z,7476.00
2023-05-13T05:01:56.371Z,7660.00
2023-05-13T05:02:56.390Z,7844.00
2023-05-13T05:03:56.399Z,8028.00
2023-05-13T05:04:56.300Z,8220.00
2023-05-13T05:05:56.292Z,8404.00
2023-05-13T05:06:56.316Z,8596.00
2023-05-13T05:07:56.272Z,8780.00
2023-05-13T05:08:56.316Z,8956.00
2023-05-13T05:09:56.251Z,9128.00
2023-05-13T05:10:56.240Z,9288.00
2023-05-13T05:11:56.230Z,9452.00
2023-05-13T05:12:56.240Z,9604.00
2023-05-13T05:13:56.204Z,9748.00
2023-05-13T05:14:56.217Z,9884.00
2023-05-13T05:15:56.186Z,10020.00
2023-05-13T05:16:56.228Z,10140.00
2023-05-13T05:17:56.444Z,10248.00
2023-05-13T05:18:56.211Z,10352.00
2023-05-13T05:19:56.138Z,10448.00
2023-05-13T05:20:56.167Z,10536.00
2023-05-13T05:21:56.123Z,10612.00
2023-05-13T05:22:56.125Z,10684.00
2023-05-13T05:23:56.112Z,10736.00
2023-05-13T05:24:56.092Z,10788.00
2023-05-13T05:26:04.495Z,10836.00
2023-05-13T05:26:57.092Z,10884.00
2023-05-13T05:27:56.062Z,10920.00
2023-05-13T05:28:56.055Z,10968.00
2023-05-13T05:29:56.047Z,11036.00
2023-05-13T05:30:56.069Z,11096.00
2023-05-13T05:31:56.110Z,11152.00
2023-05-13T05:32:56.064Z,11200.00
2023-05-13T05:33:55.994Z,11256.00
2023-05-13T05:34:55.993Z,11308.00
2023-05-13T05:35:55.975Z,11368.00
2023-05-13T05:36:55.960Z,11440.00
2023-05-13T05:37:55.949Z,11512.00
2023-05-13T05:38:55.984Z,11592.00
2023-05-13T05:39:55.925Z,11692.00
2023-05-13T05:40:55.946Z,11808.00
2023-05-13T05:41:55.913Z,11960.00
2023-05-13T05:42:55.898Z,12128.00
2023-05-13T05:43:55.882Z,12336.00
2023-05-13T05:44:55.960Z,12560.00
2023-05-13T05:45:55.942Z,12784.00
2023-05-13T05:46:55.864Z,13012.00
2023-05-13T05:47:55.895Z,13264.00
2023-05-13T05:48:55.845Z,13508.00
2023-05-13T05:49:55.824Z,13752.00
2023-05-13T05:50:55.822Z,13992.00
2023-05-13T05:51:55.803Z,14220.00
2023-05-13T05:52:55.797Z,14404.00
2023-05-13T05:53:55.771Z,14620.00
2023-05-13T05:54:55.789Z,14800.00
2023-05-13T05:55:55.765Z,14984.00
2023-05-13T05:56:55.783Z,15204.00
2023-05-13T05:57:55.733Z,15428.00
2023-05-13T05:58:55.732Z,15640.00
2023-05-13T05:59:55.707Z,15884.00
2023-05-13T06:00:55.701Z,16152.00
2023-05-13T06:01:55.753Z,16512.00
2023-05-13T06:02:55.834Z,16736.00
2023-05-13T06:03:55.763Z,16960.00
2023-05-13T06:04:55.664Z,17184.00
2023-05-13T06:05:55.642Z,17472.00
2023-05-13T06:06:55.662Z,17792.00
2023-05-13T06:07:55.622Z,18144.00
2023-05-13T06:08:55.634Z,18496.00
2023-05-13T06:09:55.611Z,18880.00
2023-05-13T06:10:55.634Z,19296.00
2023-05-13T06:11:55.577Z,19584.00
2023-05-13T06:12:55.597Z,20000.00
2023-05-13T06:13:55.566Z,20512.00
2023-05-13T06:14:55.574Z,21120.00
2023-05-13T06:15:55.557Z,21120.00
2023-05-13T06:16:55.912Z,21728.00
2023-05-13T06:17:55.565Z,22240.00
2023-05-13T06:18:55.564Z,22880.00
2023-05-13T06:19:55.492Z,23552.00
2023-05-13T06:20:55.523Z,24064.00
2023-05-13T06:21:55.469Z,24800.00
2023-05-13T06:22:55.465Z,25632.00
2023-05-13T06:23:55.452Z,26240.00
2023-05-13T06:24:55.438Z,26752.00
2023-05-13T06:25:55.424Z,27264.00
2023-05-13T06:26:55.526Z,27776.00
2023-05-13T06:27:55.418Z,27712.00
2023-05-13T06:28:55.402Z,27680.00
2023-05-13T06:29:55.382Z,27296.00
2023-05-13T06:30:55.444Z,28608.00
2023-05-13T06:31:55.358Z,29472.00
2023-05-13T06:33:01.495Z,30432.00
2023-05-13T06:33:56.336Z,31296.00
2023-05-13T06:34:56.102Z,32800.00
2023-05-13T06:35:55.315Z,34272.00
2023-05-13T06:36:55.317Z,35776.00
2023-05-13T06:37:55.296Z,37600.00
2023-05-13T06:38:55.339Z,39040.00
2023-05-13T06:39:55.296Z,38976.00
2023-05-13T06:40:55.264Z,38336.00
2023-05-13T06:41:55.250Z,34976.00
2023-05-13T06:42:55.261Z,35136.00
2023-05-13T06:43:55.228Z,38272.00
2023-05-13T06:44:55.258Z,30144.00
2023-05-13T06:45:55.220Z,29312.00
2023-05-13T06:46:55.244Z,29920.00
2023-05-13T06:47:55.224Z,31968.00
2023-05-13T06:48:55.182Z,47392.00
2023-05-13T06:49:55.194Z,47872.00
2023-05-13T06:50:55.210Z,46656.00
2023-05-13T06:51:55.162Z,47488.00
2023-05-13T06:52:55.130Z,45312.00
2023-05-13T06:53:55.125Z,42432.00
2023-05-13T06:54:55.110Z,39520.00
2023-05-13T06:55:55.099Z,37024.00
2023-05-13T06:56:55.140Z,38720.00
2023-05-13T06:57:55.077Z,40160.00
2023-05-13T06:58:55.089Z,35360.00
2023-05-13T06:59:55.058Z,33440.00
2023-05-13T07:00:55.087Z,34048.00
2023-05-13T07:01:55.037Z,34368.00
2023-05-13T07:02:55.118Z,34464.00
2023-05-13T07:03:55.099Z,36544.00
2023-05-13T07:04:54.997Z,37920.00
2023-05-13T07:05:55.000Z,47872.00
2023-05-13T07:06:54.989Z,49088.00
2023-05-13T07:07:54.972Z,47808.00
2023-05-13T07:08:55.005Z,44896.00
2023-05-13T07:09:54.966Z,37632.00
2023-05-13T07:10:54.944Z,35808.00
2023-05-13T07:11:54.934Z,35648.00
2023-05-13T07:12:54.912Z,40128.00
2023-05-13T07:13:54.907Z,41376.00
2023-05-13T07:14:54.926Z,41440.00
2023-05-13T07:15:54.899Z,37888.00
2023-05-13T07:16:54.894Z,45984.00
2023-05-13T07:17:54.891Z,48000.00
2023-05-13T07:18:54.922Z,48384.00
2023-05-13T07:19:54.866Z,48832.00
2023-05-13T07:20:54.869Z,46272.00
2023-05-13T07:21:54.824Z,48320.00
2023-05-13T07:22:54.815Z,47392.00
2023-05-13T07:23:54.802Z,51712.00
2023-05-13T07:24:54.803Z,52512.00
2023-05-13T07:25:54.788Z,52064.00
2023-05-13T07:26:54.804Z,52800.00
2023-05-13T07:27:54.772Z,52768.00
2023-05-13T07:28:54.739Z,52192.00
2023-05-13T07:29:54.738Z,52192.00
2023-05-13T07:30:54.840Z,52512.00
2023-05-13T07:31:54.720Z,53632.00
2023-05-13T07:32:54.782Z,55648.00
2023-05-13T07:33:54.698Z,37088.00
2023-05-13T07:34:54.689Z,34912.00
2023-05-13T07:35:54.671Z,34464.00
2023-05-13T07:36:54.676Z,34688.00
2023-05-13T07:37:54.655Z,35680.00
2023-05-13T07:38:54.680Z,40192.00
2023-05-13T07:39:54.646Z,63584.00
2023-05-13T07:40:54.620Z,66368.00
2023-05-13T07:41:54.610Z,67584.00
2023-05-13T07:42:54.608Z,67744.00
2023-05-13T07:43:54.589Z,68768.00
2023-05-13T07:44:54.606Z,66848.00
2023-05-13T07:45:54.574Z,68832.00
2023-05-13T07:46:54.603Z,69984.00
2023-05-13T07:47:54.637Z,67808.00
2023-05-13T07:48:54.533Z,67488.00
2023-05-13T07:49:54.536Z,65920.00
2023-05-13T07:50:54.550Z,61056.00
2023-05-13T07:51:54.524Z,61504.00
2023-05-13T07:52:54.507Z,69024.00
2023-05-13T07:53:54.488Z,69696.00
2023-05-13T07:54:54.479Z,73856.00
2023-05-13T07:55:54.467Z,77760.00
2023-05-13T07:56:54.494Z,65056.00
2023-05-13T07:57:54.449Z,65792.00
2023-05-13T07:58:54.438Z,37088.00
2023-05-13T07:59:54.484Z,34016.00
2023-05-13T08:00:54.412Z,31872.00
2023-05-13T08:01:54.432Z,30976.00
2023-05-13T08:02:54.553Z,30688.00
2023-05-13T08:03:54.538Z,30464.00
2023-05-13T08:04:54.430Z,30336.00
2023-05-13T08:05:54.357Z,30272.00
2023-05-13T08:06:54.349Z,30464.00
2023-05-13T08:07:54.334Z,31616.00
2023-05-13T08:08:54.359Z,32352.00
2023-05-13T08:09:54.318Z,32352.00
2023-05-13T08:10:54.303Z,31424.00
2023-05-13T08:11:54.296Z,32032.00
2023-05-13T08:12:54.283Z,33824.00
2023-05-13T08:13:54.344Z,40256.00
2023-05-13T08:14:54.273Z,70016.00
2023-05-13T08:15:54.284Z,83584.00
2023-05-13T08:16:54.336Z,74240.00
2023-05-13T08:17:54.363Z,80448.00
2023-05-13T08:18:54.352Z,95296.00
2023-05-13T08:19:54.263Z,99872.00
2023-05-13T08:20:54.211Z,100640.00
2023-05-13T08:21:54.216Z,110336.00
2023-05-13T08:22:54.172Z,72352.00
2023-05-13T08:23:54.163Z,60704.00
2023-05-13T08:24:54.156Z,69056.00
2023-05-13T08:25:54.152Z,108608.00
2023-05-13T08:26:54.142Z,92864.00
2023-05-13T08:27:54.121Z,86848.00
2023-05-13T08:28:55.091Z,88736.00
2023-05-13T08:29:54.100Z,118784.00
2023-05-13T08:30:54.082Z,119552.00
2023-05-13T08:31:54.161Z,133728.00
2023-05-13T08:32:54.108Z,154848.00
2023-05-13T08:33:54.061Z,154656.00
2023-05-13T08:34:54.073Z,98848.00
2023-05-13T08:35:54.029Z,106752.00
2023-05-13T08:36:54.024Z,115008.00
2023-05-13T08:37:54.019Z,137728.00
2023-05-13T08:38:54.028Z,149280.00
2023-05-13T08:39:53.987Z,146976.00
2023-05-13T08:40:53.982Z,157504.00
2023-05-13T08:41:53.990Z,138624.00
2023-05-13T08:42:53.960Z,144928.00
2023-05-13T08:43:53.983Z,139168.00
2023-05-13T08:44:53.948Z,130240.00
2023-05-13T08:45:53.956Z,131488.00
2023-05-13T08:46:53.902Z,134496.00
2023-05-13T08:47:53.982Z,134848.00
2023-05-13T08:48:53.886Z,133472.00
2023-05-13T08:49:53.880Z,136672.00
2023-05-13T08:50:53.940Z,137280.00
2023-05-13T08:51:53.870Z,140704.00
2023-05-13T08:52:53.850Z,145920.00
2023-05-13T08:53:53.855Z,143488.00
2023-05-13T08:54:53.832Z,153280.00
2023-05-13T08:55:53.815Z,140640.00
2023-05-13T08:56:53.815Z,143104.00
2023-05-13T08:57:53.793Z,143168.00
2023-05-13T08:58:53.794Z,144096.00
2023-05-13T08:59:53.786Z,119200.00
2023-05-13T09:00:53.795Z,28768.00
2023-05-13T09:01:53.790Z,27776.00
2023-05-13T09:02:53.784Z,30944.00
2023-05-13T09:03:53.729Z,58272.00
2023-05-13T09:04:53.781Z,111968.00
2023-05-13T09:05:53.731Z,67712.00
2023-05-13T09:06:53.718Z,138976.00
2023-05-13T09:07:53.688Z,41088.00
2023-05-13T09:08:53.693Z,42720.00
2023-05-13T09:09:53.665Z,90048.00
2023-05-13T09:10:53.657Z,159744.00
2023-05-13T09:11:53.652Z,166048.00
2023-05-13T09:12:53.643Z,160096.00
2023-05-13T09:13:53.624Z,145184.00
2023-05-13T09:14:53.631Z,154304.00
2023-05-13T09:15:53.757Z,168800.00
2023-05-13T09:16:53.611Z,80800.00
2023-05-13T09:17:53.620Z,92064.00
2023-05-13T09:18:53.620Z,147904.00
2023-05-13T09:19:53.597Z,157536.00
2023-05-13T09:20:53.561Z,155232.00
2023-05-13T09:21:53.547Z,145664.00
2023-05-13T09:22:53.538Z,101184.00
2023-05-13T09:23:53.508Z,159648.00
2023-05-13T09:24:53.514Z,149632.00
2023-05-13T09:25:53.490Z,146624.00
2023-05-13T09:26:53.495Z,28160.00
2023-05-13T09:27:53.477Z,30176.00
2023-05-13T09:28:53.457Z,34368.00
2023-05-13T09:29:53.457Z,50304.00
2023-05-13T09:30:53.452Z,115040.00
2023-05-13T09:31:53.452Z,32384.00
2023-05-13T09:32:53.457Z,28896.00
2023-05-13T09:33:53.400Z,37920.00
2023-05-13T09:34:53.403Z,47552.00
2023-05-13T09:35:53.745Z,29600.00
2023-05-13T09:36:53.368Z,28768.00
2023-05-13T09:37:53.355Z,29248.00
2023-05-13T09:38:53.394Z,30048.00
2023-05-13T09:39:53.344Z,30848.00
2023-05-13T09:40:53.330Z,31968.00
2023-05-13T09:41:53.335Z,32800.00
2023-05-13T09:42:53.304Z,33504.00
2023-05-13T09:43:53.286Z,34528.00
2023-05-13T09:44:53.305Z,36352.00
2023-05-13T09:45:53.273Z,40576.00
2023-05-13T09:46:53.308Z,43552.00
2023-05-13T09:47:53.255Z,40064.00
2023-05-13T09:48:55.140Z,41856.00
2023-05-13T09:49:53.236Z,43488.00
2023-05-13T09:50:53.236Z,44800.00
2023-05-13T09:51:53.224Z,47200.00
2023-05-13T09:52:53.200Z,57600.00
2023-05-13T09:53:53.183Z,48224.00
2023-05-13T09:54:53.195Z,43808.00
2023-05-13T09:55:53.176Z,42624.00
2023-05-13T09:56:53.172Z,44032.00
2023-05-13T09:57:53.142Z,138016.00
2023-05-13T09:58:53.206Z,163072.00
2023-05-13T09:59:53.121Z,165856.00
2023-05-13T10:00:53.244Z,105728.00
2023-05-13T10:01:53.132Z,41888.00
2023-05-13T10:02:53.229Z,38720.00
2023-05-13T10:03:53.141Z,37408.00
2023-05-13T10:04:53.078Z,35200.00
2023-05-13T10:05:53.058Z,36224.00
2023-05-13T10:06:53.048Z,36384.00
2023-05-13T10:07:53.047Z,36160.00
2023-05-13T10:08:53.080Z,35040.00
2023-05-13T10:09:53.012Z,33056.00
2023-05-13T10:10:53.057Z,31680.00
2023-05-13T10:11:52.993Z,31584.00
2023-05-13T10:12:52.994Z,32032.00
2023-05-13T10:13:53.008Z,32928.00
2023-05-13T10:14:52.980Z,33344.00
2023-05-13T10:15:52.963Z,33280.00
2023-05-13T10:16:52.991Z,32672.00
2023-05-13T10:17:52.963Z,32032.00
2023-05-13T10:18:52.954Z,31680.00
2023-05-13T10:19:52.918Z,31232.00
2023-05-13T10:20:53.219Z,30816.00
2023-05-13T10:21:52.927Z,30560.00
2023-05-13T10:22:52.874Z,30272.00
2023-05-13T10:23:52.860Z,30208.00
2023-05-13T10:24:52.862Z,30240.00
2023-05-13T10:25:52.864Z,30336.00
2023-05-13T10:26:52.878Z,30304.00
2023-05-13T10:27:52.856Z,30080.00
2023-05-13T10:28:52.812Z,29568.00
2023-05-13T10:29:52.811Z,29152.00
2023-05-13T10:30:52.927Z,28992.00
2023-05-13T10:31:52.814Z,28896.00
2023-05-13T10:32:52.885Z,29216.00
2023-05-13T10:33:52.769Z,29792.00
2023-05-13T10:34:52.755Z,30688.00
2023-05-13T10:35:52.726Z,31904.00
2023-05-13T10:36:52.722Z,33344.00
2023-05-13T10:37:52.706Z,37568.00
2023-05-13T10:38:52.744Z,37824.00
2023-05-13T10:39:52.686Z,37728.00
2023-05-13T10:40:52.739Z,38912.00
2023-05-13T10:41:52.684Z,41184.00
2023-05-13T10:42:52.811Z,43808.00
2023-05-13T10:43:52.642Z,49088.00
2023-05-13T10:44:52.643Z,55968.00
2023-05-13T10:45:52.793Z,69536.00
2023-05-13T10:46:52.737Z,87936.00
2023-05-13T10:47:52.764Z,74272.00
2023-05-13T10:48:52.599Z,75712.00
2023-05-13T10:49:52.596Z,80640.00
2023-05-13T10:50:52.785Z,50336.00
2023-05-13T10:51:52.584Z,39072.00
2023-05-13T10:52:52.638Z,35392.00
2023-05-13T10:53:52.572Z,33568.00
2023-05-13T10:54:52.547Z,32416.00
2023-05-13T10:55:52.590Z,31808.00
2023-05-13T10:56:52.575Z,31072.00
2023-05-13T10:57:52.573Z,30496.00
2023-05-13T10:58:52.583Z,30496.00
2023-05-13T10:59:52.582Z,30368.00
2023-05-13T11:00:52.462Z,30112.00
2023-05-13T11:01:52.690Z,29824.00
2023-05-13T11:02:52.631Z,29824.00
2023-05-13T11:03:52.580Z,29824.00
2023-05-13T11:04:52.418Z,29760.00
2023-05-13T11:05:52.430Z,29920.00
2023-05-13T11:06:52.395Z,29984.00
2023-05-13T11:07:52.399Z,29984.00
2023-05-13T11:08:55.080Z,29856.00
2023-05-13T11:09:52.362Z,29696.00
2023-05-13T11:10:52.366Z,29536.00
2023-05-13T11:11:52.340Z,29376.00
2023-05-13T11:12:52.342Z,29184.00
2023-05-13T11:13:52.333Z,28992.00
2023-05-13T11:14:52.330Z,29184.00
2023-05-13T11:15:52.327Z,30816.00
2023-05-13T11:16:52.291Z,40640.00
2023-05-13T11:17:52.313Z,31264.00
2023-05-13T11:18:52.293Z,31712.00
2023-05-13T11:19:52.354Z,32768.00
2023-05-13T11:20:53.070Z,79872.00
2023-05-13T11:21:52.246Z,34432.00
2023-05-13T11:22:52.225Z,33920.00
2023-05-13T11:23:52.212Z,33984.00
2023-05-13T11:24:52.213Z,34016.00
2023-05-13T11:25:52.212Z,33344.00
2023-05-13T11:26:52.202Z,34784.00
2023-05-13T11:27:52.167Z,41920.00
2023-05-13T11:28:52.161Z,31232.00
2023-05-13T11:29:52.149Z,29280.00
2023-05-13T11:30:52.156Z,28160.00
2023-05-13T11:31:52.321Z,27232.00
2023-05-13T11:32:52.246Z,26624.00
2023-05-13T11:33:52.101Z,26240.00
2023-05-13T11:34:52.093Z,26208.00
2023-05-13T11:35:52.081Z,26368.00
2023-05-13T11:36:52.086Z,26176.00
2023-05-13T11:37:52.077Z,25888.00
2023-05-13T11:38:52.057Z,25504.00
2023-05-13T11:39:52.036Z,25280.00
2023-05-13T11:40:52.029Z,24896.00
2023-05-13T11:41:52.020Z,24736.00
2023-05-13T11:42:52.034Z,24960.00
2023-05-13T11:43:52.008Z,25696.00
2023-05-13T11:44:51.991Z,26656.00
2023-05-13T11:45:51.995Z,27872.00
2023-05-13T11:46:51.994Z,29632.00
2023-05-13T11:47:51.980Z,31648.00
2023-05-13T11:48:51.950Z,32736.00
2023-05-13T11:49:51.951Z,35840.00
2023-05-13T11:50:51.968Z,41248.00
2023-05-13T11:51:51.921Z,50368.00
2023-05-13T11:52:51.911Z,49248.00
2023-05-13T11:53:51.886Z,48736.00
2023-05-13T11:54:51.879Z,52704.00
2023-05-13T11:55:51.945Z,88800.00
2023-05-13T11:56:51.864Z,101184.00
2023-05-13T11:57:51.847Z,104576.00
2023-05-13T11:58:51.858Z,104384.00
2023-05-13T11:59:51.840Z,105568.00
2023-05-13T12:00:51.814Z,60192.00
2023-05-13T12:01:51.849Z,48800.00
2023-05-13T12:02:52.028Z,45696.00
2023-05-13T12:03:51.780Z,46080.00
2023-05-13T12:04:51.836Z,46752.00
2023-05-13T12:05:51.760Z,52192.00
2023-05-13T12:06:51.748Z,91200.00
2023-05-13T12:07:51.751Z,61632.00
2023-05-13T12:08:51.747Z,54944.00
2023-05-13T12:09:51.737Z,59328.00
2023-05-13T12:10:51.716Z,96640.00
2023-05-13T12:11:51.697Z,96320.00